sensor_id;sensor_type;location;lat;lon;timestamp;P1;durP1;ratioP1;P2;durP2;ratioP2
18669;SDS011;9464;44.918;9.670;2023-01-01T00:01:58;45.27;;;25.33;;
18669;SDS011;9464;44.918;9.670;2023-01-01T00:04:27;52.77;;;27.67;;
18669;SDS011;9464;44.918;9.670;2023-01-01T00:06:55;55.90;;;26.77;;
18669;SDS011;9464;44.918;9.670;2023-01-01T00:09:23;51.60;;;28.93;;
18669;SDS011;9464;44.918;9.670;2023-01-01T00:12:11;53.83;;;29.70;;
18669;SDS011;9464;44.918;9.670;2023-01-01T00:14:40;48.47;;;28.47;;
18669;SDS011;9464;44.918;9.670;2023-01-01T00:17:09;50.77;;;28.13;;
18669;SDS011;9464;44.918;9.670;2023-01-01T00:19:38;48.13;;;26.77;;
18669;SDS011;9464;44.918;9.670;2023-01-01T00:22:06;46.27;;;25.50;;
18669;SDS011;9464;44.918;9.670;2023-01-01T00:24:55;50.10;;;26.97;;
18669;SDS011;9464;44.918;9.670;2023-01-01T00:27:25;50.13;;;27.57;;
18669;SDS011;9464;44.918;9.670;2023-01-01T00:29:53;51.57;;;27.97;;
18669;SDS011;9464;44.918;9.670;2023-01-01T00:32:21;49.50;;;27.03;;
18669;SDS011;9464;44.918;9.670;2023-01-01T00:34:50;41.23;;;25.83;;
18669;SDS011;9464;44.918;9.670;2023-01-01T00:37:19;45.60;;;24.97;;
18669;SDS011;9464;44.918;9.670;2023-01-01T00:39:47;46.67;;;26.13;;
18669;SDS011;9464;44.918;9.670;2023-01-01T00:42:16;47.10;;;24.47;;
18669;SDS011;9464;44.918;9.670;2023-01-01T00:44:45;50.23;;;28.33;;
18669;SDS011;9464;44.918;9.670;2023-01-01T00:47:14;48.87;;;26.20;;
18669;SDS011;9464;44.918;9.670;2023-01-01T00:49:42;40.67;;;25.87;;
18669;SDS011;9464;44.918;9.670;2023-01-01T00:52:11;45.93;;;24.60;;
18669;SDS011;9464;44.918;9.670;2023-01-01T00:54:39;42.07;;;24.10;;
18669;SDS011;9464;44.918;9.670;2023-01-01T00:57:08;50.47;;;25.77;;
18669;SDS011;9464;44.918;9.670;2023-01-01T00:59:36;45.63;;;25.70;;
18669;SDS011;9464;44.918;9.670;2023-01-01T01:02:06;44.60;;;25.13;;
18669;SDS011;9464;44.918;9.670;2023-01-01T01:04:35;46.57;;;25.20;;
18669;SDS011;9464;44.918;9.670;2023-01-01T01:07:03;54.33;;;26.40;;
18669;SDS011;9464;44.918;9.670;2023-01-01T01:09:32;44.47;;;24.33;;
18669;SDS011;9464;44.918;9.670;2023-01-01T01:12:00;40.13;;;24.33;;
18669;SDS011;9464;44.918;9.670;2023-01-01T01:14:44;43.63;;;24.27;;
18669;SDS011;9464;44.918;9.670;2023-01-01T01:17:14;40.27;;;25.17;;
18669;SDS011;9464;44.918;9.670;2023-01-01T01:19:42;41.00;;;23.80;;
18669;SDS011;9464;44.918;9.670;2023-01-01T01:22:10;40.00;;;23.40;;
18669;SDS011;9464;44.918;9.670;2023-01-01T01:24:39;41.57;;;23.10;;
18669;SDS011;9464;44.918;9.670;2023-01-01T01:27:07;44.27;;;23.83;;
18669;SDS011;9464;44.918;9.670;2023-01-01T01:29:36;40.10;;;22.60;;
18669;SDS011;9464;44.918;9.670;2023-01-01T01:32:04;39.30;;;22.93;;
18669;SDS011;9464;44.918;9.670;2023-01-01T01:34:34;43.40;;;24.37;;
18669;SDS011;9464;44.918;9.670;2023-01-01T01:37:03;42.17;;;23.47;;
18669;SDS011;9464;44.918;9.670;2023-01-01T01:39:31;41.03;;;23.60;;
18669;SDS011;9464;44.918;9.670;2023-01-01T01:42:00;42.57;;;24.07;;
18669;SDS011;9464;44.918;9.670;2023-01-01T01:44:48;36.80;;;21.47;;
18669;SDS011;9464;44.918;9.670;2023-01-01T01:47:18;36.43;;;22.00;;
18669;SDS011;9464;44.918;9.670;2023-01-01T01:49:51;43.50;;;22.97;;
18669;SDS011;9464;44.918;9.670;2023-01-01T01:52:21;37.03;;;21.80;;
18669;SDS011;9464;44.918;9.670;2023-01-01T01:54:50;35.67;;;20.70;;
18669;SDS011;9464;44.918;9.670;2023-01-01T01:57:20;33.53;;;20.53;;
18669;SDS011;9464;44.918;9.670;2023-01-01T01:59:49;35.27;;;21.37;;
18669;SDS011;9464;44.918;9.670;2023-01-01T02:02:21;35.03;;;19.50;;
18669;SDS011;9464;44.918;9.670;2023-01-01T02:04:54;39.03;;;23.27;;
18669;SDS011;9464;44.918;9.670;2023-01-01T02:07:22;40.23;;;21.40;;
18669;SDS011;9464;44.918;9.670;2023-01-01T02:09:53;33.40;;;20.73;;
18669;SDS011;9464;44.918;9.670;2023-01-01T02:12:21;36.00;;;21.50;;
18669;SDS011;9464;44.918;9.670;2023-01-01T02:14:50;35.67;;;22.20;;
18669;SDS011;9464;44.918;9.670;2023-01-01T02:17:20;39.17;;;23.00;;
18669;SDS011;9464;44.918;9.670;2023-01-01T02:19:57;38.93;;;22.47;;
18669;SDS011;9464;44.918;9.670;2023-01-01T02:22:31;37.30;;;21.70;;
18669;SDS011;9464;44.918;9.670;2023-01-01T02:25:05;35.73;;;20.03;;
18669;SDS011;9464;44.918;9.670;2023-01-01T02:27:42;34.70;;;22.07;;
18669;SDS011;9464;44.918;9.670;2023-01-01T02:30:14;41.87;;;21.20;;
18669;SDS011;9464;44.918;9.670;2023-01-01T02:32:44;38.13;;;21.60;;
18669;SDS011;9464;44.918;9.670;2023-01-01T02:35:15;32.10;;;19.73;;
18669;SDS011;9464;44.918;9.670;2023-01-01T02:38:05;36.43;;;20.27;;
18669;SDS011;9464;44.918;9.670;2023-01-01T02:40:35;31.30;;;19.77;;
18669;SDS011;9464;44.918;9.670;2023-01-01T02:43:04;38.07;;;20.70;;
18669;SDS011;9464;44.918;9.670;2023-01-01T02:45:35;37.30;;;21.83;;
18669;SDS011;9464;44.918;9.670;2023-01-01T02:48:04;34.83;;;20.40;;
18669;SDS011;9464;44.918;9.670;2023-01-01T02:50:32;37.53;;;21.23;;
18669;SDS011;9464;44.918;9.670;2023-01-01T02:53:11;37.20;;;21.20;;
18669;SDS011;9464;44.918;9.670;2023-01-01T02:55:45;36.40;;;20.73;;
18669;SDS011;9464;44.918;9.670;2023-01-01T02:58:15;36.10;;;21.63;;
18669;SDS011;9464;44.918;9.670;2023-01-01T03:01:07;36.33;;;22.13;;
18669;SDS011;9464;44.918;9.670;2023-01-01T03:03:37;39.60;;;23.60;;
18669;SDS011;9464;44.918;9.670;2023-01-01T03:06:07;40.93;;;23.67;;
18669;SDS011;9464;44.918;9.670;2023-01-01T03:08:54;40.60;;;22.83;;
18669;SDS011;9464;44.918;9.670;2023-01-01T03:11:26;40.87;;;22.73;;
18669;SDS011;9464;44.918;9.670;2023-01-01T03:13:59;41.90;;;23.60;;
18669;SDS011;9464;44.918;9.670;2023-01-01T03:16:33;35.93;;;22.10;;
18669;SDS011;9464;44.918;9.670;2023-01-01T03:19:04;43.03;;;23.40;;
18669;SDS011;9464;44.918;9.670;2023-01-01T03:21:39;36.80;;;21.80;;
18669;SDS011;9464;44.918;9.670;2023-01-01T03:24:10;39.53;;;23.97;;
18669;SDS011;9464;44.918;9.670;2023-01-01T03:26:40;38.07;;;21.90;;
18669;SDS011;9464;44.918;9.670;2023-01-01T03:29:10;173.90;;;49.10;;
18669;SDS011;9464;44.918;9.670;2023-01-01T03:31:41;95.60;;;37.20;;
18669;SDS011;9464;44.918;9.670;2023-01-01T03:34:12;40.40;;;23.03;;
18669;SDS011;9464;44.918;9.670;2023-01-01T03:36:42;42.03;;;23.97;;
18669;SDS011;9464;44.918;9.670;2023-01-01T03:39:13;43.10;;;25.20;;
18669;SDS011;9464;44.918;9.670;2023-01-01T03:41:45;42.63;;;24.10;;
18669;SDS011;9464;44.918;9.670;2023-01-01T03:44:16;47.13;;;23.93;;
18669;SDS011;9464;44.918;9.670;2023-01-01T03:46:49;45.93;;;24.43;;
18669;SDS011;9464;44.918;9.670;2023-01-01T03:49:17;46.60;;;23.40;;
18669;SDS011;9464;44.918;9.670;2023-01-01T03:54:32;43.90;;;22.53;;
18669;SDS011;9464;44.918;9.670;2023-01-01T03:57:06;42.20;;;22.47;;
18669;SDS011;9464;44.918;9.670;2023-01-01T03:59:37;36.80;;;20.93;;
18669;SDS011;9464;44.918;9.670;2023-01-01T04:02:08;36.07;;;20.33;;
18669;SDS011;9464;44.918;9.670;2023-01-01T04:04:38;32.33;;;19.23;;
18669;SDS011;9464;44.918;9.670;2023-01-01T04:07:06;33.53;;;18.10;;
18669;SDS011;9464;44.918;9.670;2023-01-01T04:09:41;37.40;;;19.37;;
18669;SDS011;9464;44.918;9.670;2023-01-01T04:12:11;37.83;;;19.37;;
18669;SDS011;9464;44.918;9.670;2023-01-01T04:14:40;29.23;;;17.27;;
18669;SDS011;9464;44.918;9.670;2023-01-01T04:17:10;32.27;;;18.60;;
18669;SDS011;9464;44.918;9.670;2023-01-01T04:19:39;33.10;;;18.70;;
18669;SDS011;9464;44.918;9.670;2023-01-01T04:22:08;33.13;;;17.90;;
18669;SDS011;9464;44.918;9.670;2023-01-01T04:24:37;37.23;;;19.20;;
18669;SDS011;9464;44.918;9.670;2023-01-01T04:27:05;31.57;;;17.93;;
18669;SDS011;9464;44.918;9.670;2023-01-01T04:29:34;36.43;;;18.27;;
18669;SDS011;9464;44.918;9.670;2023-01-01T04:32:03;38.23;;;19.57;;
18669;SDS011;9464;44.918;9.670;2023-01-01T04:34:33;38.70;;;18.87;;
18669;SDS011;9464;44.918;9.670;2023-01-01T04:37:02;41.30;;;19.93;;
18669;SDS011;9464;44.918;9.670;2023-01-01T04:39:38;42.63;;;19.73;;
18669;SDS011;9464;44.918;9.670;2023-01-01T04:42:06;44.33;;;19.87;;
18669;SDS011;9464;44.918;9.670;2023-01-01T04:44:35;38.80;;;19.60;;
18669;SDS011;9464;44.918;9.670;2023-01-01T04:47:03;42.90;;;19.87;;
18669;SDS011;9464;44.918;9.670;2023-01-01T04:49:33;39.13;;;19.33;;
18669;SDS011;9464;44.918;9.670;2023-01-01T04:54:30;40.63;;;19.10;;
18669;SDS011;9464;44.918;9.670;2023-01-01T04:56:58;44.20;;;20.37;;
18669;SDS011;9464;44.918;9.670;2023-01-01T04:59:28;39.73;;;18.87;;
18669;SDS011;9464;44.918;9.670;2023-01-01T05:01:57;43.33;;;19.70;;
18669;SDS011;9464;44.918;9.670;2023-01-01T05:04:26;41.53;;;19.37;;
18669;SDS011;9464;44.918;9.670;2023-01-01T05:06:56;45.90;;;20.47;;
18669;SDS011;9464;44.918;9.670;2023-01-01T05:09:24;41.87;;;19.57;;
18669;SDS011;9464;44.918;9.670;2023-01-01T05:11:53;44.63;;;20.17;;
18669;SDS011;9464;44.918;9.670;2023-01-01T05:14:21;42.23;;;19.27;;
18669;SDS011;9464;44.918;9.670;2023-01-01T05:16:51;42.07;;;19.40;;
18669;SDS011;9464;44.918;9.670;2023-01-01T05:19:19;42.70;;;19.37;;
18669;SDS011;9464;44.918;9.670;2023-01-01T05:21:48;41.13;;;19.23;;
18669;SDS011;9464;44.918;9.670;2023-01-01T05:24:18;38.00;;;17.93;;
18669;SDS011;9464;44.918;9.670;2023-01-01T05:26:46;37.03;;;17.60;;
18669;SDS011;9464;44.918;9.670;2023-01-01T05:29:15;40.60;;;20.20;;
18669;SDS011;9464;44.918;9.670;2023-01-01T05:31:44;46.97;;;19.67;;
18669;SDS011;9464;44.918;9.670;2023-01-01T05:34:13;45.53;;;19.57;;
18669;SDS011;9464;44.918;9.670;2023-01-01T05:36:42;40.73;;;20.07;;
18669;SDS011;9464;44.918;9.670;2023-01-01T05:39:10;44.37;;;20.10;;
18669;SDS011;9464;44.918;9.670;2023-01-01T05:41:41;42.50;;;18.97;;
18669;SDS011;9464;44.918;9.670;2023-01-01T05:44:09;42.67;;;19.70;;
18669;SDS011;9464;44.918;9.670;2023-01-01T05:46:38;44.03;;;19.67;;
18669;SDS011;9464;44.918;9.670;2023-01-01T05:49:08;42.37;;;19.37;;
18669;SDS011;9464;44.918;9.670;2023-01-01T05:51:37;45.43;;;19.83;;
18669;SDS011;9464;44.918;9.670;2023-01-01T05:54:05;43.90;;;20.53;;
18669;SDS011;9464;44.918;9.670;2023-01-01T05:56:33;44.63;;;18.93;;
18669;SDS011;9464;44.918;9.670;2023-01-01T05:59:03;42.67;;;18.77;;
18669;SDS011;9464;44.918;9.670;2023-01-01T06:01:31;39.20;;;18.93;;
18669;SDS011;9464;44.918;9.670;2023-01-01T06:04:08;44.33;;;20.40;;
18669;SDS011;9464;44.918;9.670;2023-01-01T06:06:37;46.53;;;19.37;;
18669;SDS011;9464;44.918;9.670;2023-01-01T06:09:05;43.90;;;19.77;;
18669;SDS011;9464;44.918;9.670;2023-01-01T06:11:34;43.17;;;18.43;;
18669;SDS011;9464;44.918;9.670;2023-01-01T06:14:04;40.33;;;17.80;;
18669;SDS011;9464;44.918;9.670;2023-01-01T06:16:32;46.60;;;19.03;;
18669;SDS011;9464;44.918;9.670;2023-01-01T06:19:01;39.67;;;17.77;;
18669;SDS011;9464;44.918;9.670;2023-01-01T06:21:29;37.50;;;17.40;;
18669;SDS011;9464;44.918;9.670;2023-01-01T06:23:58;39.57;;;18.33;;
18669;SDS011;9464;44.918;9.670;2023-01-01T06:26:27;34.67;;;16.97;;
18669;SDS011;9464;44.918;9.670;2023-01-01T06:28:57;36.23;;;16.97;;
18669;SDS011;9464;44.918;9.670;2023-01-01T06:31:27;41.70;;;19.13;;
18669;SDS011;9464;44.918;9.670;2023-01-01T06:34:03;41.27;;;17.53;;
18669;SDS011;9464;44.918;9.670;2023-01-01T06:36:32;36.97;;;17.57;;
18669;SDS011;9464;44.918;9.670;2023-01-01T06:39:00;37.43;;;17.80;;
18669;SDS011;9464;44.918;9.670;2023-01-01T06:41:29;47.87;;;18.53;;
18669;SDS011;9464;44.918;9.670;2023-01-01T06:43:58;44.37;;;19.33;;
18669;SDS011;9464;44.918;9.670;2023-01-01T06:46:29;45.83;;;18.87;;
18669;SDS011;9464;44.918;9.670;2023-01-01T06:48:58;45.97;;;18.97;;
18669;SDS011;9464;44.918;9.670;2023-01-01T06:51:27;45.00;;;19.13;;
18669;SDS011;9464;44.918;9.670;2023-01-01T06:53:57;44.37;;;19.33;;
18669;SDS011;9464;44.918;9.670;2023-01-01T06:56:26;51.97;;;20.07;;
18669;SDS011;9464;44.918;9.670;2023-01-01T06:58:54;49.40;;;20.30;;
18669;SDS011;9464;44.918;9.670;2023-01-01T07:01:23;54.67;;;21.83;;
18669;SDS011;9464;44.918;9.670;2023-01-01T07:03:54;51.27;;;20.10;;
18669;SDS011;9464;44.918;9.670;2023-01-01T07:06:23;52.00;;;20.03;;
18669;SDS011;9464;44.918;9.670;2023-01-01T07:08:52;52.13;;;19.97;;
18669;SDS011;9464;44.918;9.670;2023-01-01T07:11:21;47.00;;;18.67;;
18669;SDS011;9464;44.918;9.670;2023-01-01T07:13:49;54.13;;;20.90;;
18669;SDS011;9464;44.918;9.670;2023-01-01T07:16:18;46.80;;;20.23;;
18669;SDS011;9464;44.918;9.670;2023-01-01T07:18:47;55.23;;;21.60;;
18669;SDS011;9464;44.918;9.670;2023-01-01T07:21:27;47.00;;;19.43;;
18669;SDS011;9464;44.918;9.670;2023-01-01T07:23:56;48.23;;;20.83;;
18669;SDS011;9464;44.918;9.670;2023-01-01T07:26:26;49.30;;;20.33;;
18669;SDS011;9464;44.918;9.670;2023-01-01T07:28:54;36.97;;;17.30;;
18669;SDS011;9464;44.918;9.670;2023-01-01T07:31:32;44.27;;;17.93;;
18669;SDS011;9464;44.918;9.670;2023-01-01T07:34:01;48.33;;;19.00;;
18669;SDS011;9464;44.918;9.670;2023-01-01T07:36:30;47.87;;;19.73;;
18669;SDS011;9464;44.918;9.670;2023-01-01T07:38:59;46.30;;;19.10;;
18669;SDS011;9464;44.918;9.670;2023-01-01T07:41:27;34.90;;;17.33;;
18669;SDS011;9464;44.918;9.670;2023-01-01T07:43:56;32.23;;;14.27;;
18669;SDS011;9464;44.918;9.670;2023-01-01T07:46:25;23.13;;;12.63;;
18669;SDS011;9464;44.918;9.670;2023-01-01T07:48:53;22.83;;;13.20;;
18669;SDS011;9464;44.918;9.670;2023-01-01T07:51:22;18.60;;;11.50;;
18669;SDS011;9464;44.918;9.670;2023-01-01T07:53:52;22.30;;;11.30;;
18669;SDS011;9464;44.918;9.670;2023-01-01T07:56:27;18.00;;;9.73;;
18669;SDS011;9464;44.918;9.670;2023-01-01T07:58:56;12.93;;;8.53;;
18669;SDS011;9464;44.918;9.670;2023-01-01T08:01:24;13.27;;;8.17;;
18669;SDS011;9464;44.918;9.670;2023-01-01T08:03:53;12.37;;;7.83;;
18669;SDS011;9464;44.918;9.670;2023-01-01T08:06:21;12.57;;;8.03;;
18669;SDS011;9464;44.918;9.670;2023-01-01T08:08:49;10.80;;;7.37;;
18669;SDS011;9464;44.918;9.670;2023-01-01T08:11:19;10.07;;;7.43;;
18669;SDS011;9464;44.918;9.670;2023-01-01T08:13:48;13.73;;;8.10;;
18669;SDS011;9464;44.918;9.670;2023-01-01T08:16:16;11.47;;;7.43;;
18669;SDS011;9464;44.918;9.670;2023-01-01T08:18:45;12.40;;;7.47;;
18669;SDS011;9464;44.918;9.670;2023-01-01T08:21:13;13.67;;;8.63;;
18669;SDS011;9464;44.918;9.670;2023-01-01T08:23:42;14.93;;;9.20;;
18669;SDS011;9464;44.918;9.670;2023-01-01T08:26:12;15.13;;;9.50;;
18669;SDS011;9464;44.918;9.670;2023-01-01T08:28:43;17.07;;;9.90;;
18669;SDS011;9464;44.918;9.670;2023-01-01T08:31:18;18.03;;;10.63;;
18669;SDS011;9464;44.918;9.670;2023-01-01T08:33:47;20.70;;;10.17;;
18669;SDS011;9464;44.918;9.670;2023-01-01T08:36:15;20.47;;;10.77;;
18669;SDS011;9464;44.918;9.670;2023-01-01T08:38:46;17.40;;;9.97;;
18669;SDS011;9464;44.918;9.670;2023-01-01T08:41:14;20.50;;;11.73;;
18669;SDS011;9464;44.918;9.670;2023-01-01T08:43:44;25.77;;;12.80;;
18669;SDS011;9464;44.918;9.670;2023-01-01T08:46:12;20.47;;;11.47;;
18669;SDS011;9464;44.918;9.670;2023-01-01T08:48:41;20.33;;;11.17;;
18669;SDS011;9464;44.918;9.670;2023-01-01T08:51:09;19.97;;;11.87;;
18669;SDS011;9464;44.918;9.670;2023-01-01T08:53:38;17.97;;;10.83;;
18669;SDS011;9464;44.918;9.670;2023-01-01T08:56:15;19.30;;;11.67;;
18669;SDS011;9464;44.918;9.670;2023-01-01T08:58:45;20.60;;;11.87;;
18669;SDS011;9464;44.918;9.670;2023-01-01T09:01:14;21.27;;;11.70;;
18669;SDS011;9464;44.918;9.670;2023-01-01T09:03:42;31.03;;;17.83;;
18669;SDS011;9464;44.918;9.670;2023-01-01T09:06:11;44.43;;;23.03;;
18669;SDS011;9464;44.918;9.670;2023-01-01T09:08:39;21.33;;;13.33;;
18669;SDS011;9464;44.918;9.670;2023-01-01T09:11:13;20.50;;;11.43;;
18669;SDS011;9464;44.918;9.670;2023-01-01T09:13:43;19.80;;;10.47;;
18669;SDS011;9464;44.918;9.670;2023-01-01T09:16:13;18.80;;;11.77;;
18669;SDS011;9464;44.918;9.670;2023-01-01T09:18:41;20.87;;;12.40;;
18669;SDS011;9464;44.918;9.670;2023-01-01T09:21:10;20.43;;;12.37;;
18669;SDS011;9464;44.918;9.670;2023-01-01T09:23:38;20.03;;;11.97;;
18669;SDS011;9464;44.918;9.670;2023-01-01T09:26:08;22.87;;;12.50;;
18669;SDS011;9464;44.918;9.670;2023-01-01T09:28:36;20.13;;;12.57;;
18669;SDS011;9464;44.918;9.670;2023-01-01T09:31:05;21.47;;;12.70;;
18669;SDS011;9464;44.918;9.670;2023-01-01T09:33:35;24.40;;;11.80;;
18669;SDS011;9464;44.918;9.670;2023-01-01T09:36:13;24.07;;;12.73;;
18669;SDS011;9464;44.918;9.670;2023-01-01T09:38:42;20.47;;;11.53;;
18669;SDS011;9464;44.918;9.670;2023-01-01T09:41:13;20.93;;;11.73;;
18669;SDS011;9464;44.918;9.670;2023-01-01T09:43:44;23.23;;;12.93;;
18669;SDS011;9464;44.918;9.670;2023-01-01T09:46:17;23.03;;;12.70;;
18669;SDS011;9464;44.918;9.670;2023-01-01T09:48:55;22.03;;;12.23;;
18669;SDS011;9464;44.918;9.670;2023-01-01T09:51:25;22.13;;;12.67;;
18669;SDS011;9464;44.918;9.670;2023-01-01T09:53:56;29.07;;;12.90;;
18669;SDS011;9464;44.918;9.670;2023-01-01T09:56:27;23.83;;;13.27;;
18669;SDS011;9464;44.918;9.670;2023-01-01T09:58:56;21.37;;;12.70;;
18669;SDS011;9464;44.918;9.670;2023-01-01T10:01:29;23.53;;;12.60;;
18669;SDS011;9464;44.918;9.670;2023-01-01T10:04:03;21.00;;;11.53;;
18669;SDS011;9464;44.918;9.670;2023-01-01T10:06:38;21.60;;;11.67;;
18669;SDS011;9464;44.918;9.670;2023-01-01T10:09:13;20.97;;;11.90;;
18669;SDS011;9464;44.918;9.670;2023-01-01T10:11:49;19.03;;;11.03;;
18669;SDS011;9464;44.918;9.670;2023-01-01T10:14:22;20.30;;;12.00;;
18669;SDS011;9464;44.918;9.670;2023-01-01T10:16:54;21.13;;;12.07;;
18669;SDS011;9464;44.918;9.670;2023-01-01T10:19:27;18.00;;;11.20;;
18669;SDS011;9464;44.918;9.670;2023-01-01T10:21:59;19.00;;;11.73;;
18669;SDS011;9464;44.918;9.670;2023-01-01T10:24:34;19.93;;;11.30;;
18669;SDS011;9464;44.918;9.670;2023-01-01T10:27:04;22.93;;;12.97;;
18669;SDS011;9464;44.918;9.670;2023-01-01T10:29:35;23.73;;;13.13;;
18669;SDS011;9464;44.918;9.670;2023-01-01T10:32:13;24.97;;;12.70;;
18669;SDS011;9464;44.918;9.670;2023-01-01T10:34:43;23.13;;;12.63;;
18669;SDS011;9464;44.918;9.670;2023-01-01T10:37:12;22.93;;;13.30;;
18669;SDS011;9464;44.918;9.670;2023-01-01T10:39:41;23.27;;;13.10;;
18669;SDS011;9464;44.918;9.670;2023-01-01T10:42:10;23.87;;;13.10;;
18669;SDS011;9464;44.918;9.670;2023-01-01T10:44:39;22.70;;;13.47;;
18669;SDS011;9464;44.918;9.670;2023-01-01T10:47:21;25.80;;;13.63;;
18669;SDS011;9464;44.918;9.670;2023-01-01T10:49:54;22.90;;;13.10;;
18669;SDS011;9464;44.918;9.670;2023-01-01T10:52:27;22.07;;;12.00;;
18669;SDS011;9464;44.918;9.670;2023-01-01T10:54:57;23.67;;;12.70;;
18669;SDS011;9464;44.918;9.670;2023-01-01T10:57:30;22.47;;;13.20;;
18669;SDS011;9464;44.918;9.670;2023-01-01T11:00:08;21.83;;;12.63;;
18669;SDS011;9464;44.918;9.670;2023-01-01T11:02:37;22.30;;;12.77;;
18669;SDS011;9464;44.918;9.670;2023-01-01T11:05:13;20.33;;;12.67;;
18669;SDS011;9464;44.918;9.670;2023-01-01T11:07:47;33.53;;;17.67;;
18669;SDS011;9464;44.918;9.670;2023-01-01T11:10:16;25.27;;;14.70;;
18669;SDS011;9464;44.918;9.670;2023-01-01T11:12:45;21.60;;;13.30;;
18669;SDS011;9464;44.918;9.670;2023-01-01T11:15:34;22.53;;;13.60;;
18669;SDS011;9464;44.918;9.670;2023-01-01T11:18:03;24.50;;;14.57;;
18669;SDS011;9464;44.918;9.670;2023-01-01T11:20:34;23.83;;;14.63;;
18669;SDS011;9464;44.918;9.670;2023-01-01T11:23:16;20.27;;;12.83;;
18669;SDS011;9464;44.918;9.670;2023-01-01T11:25:55;18.07;;;11.63;;
18669;SDS011;9464;44.918;9.670;2023-01-01T11:28:23;23.17;;;11.63;;
18669;SDS011;9464;44.918;9.670;2023-01-01T11:31:06;16.87;;;11.37;;
18669;SDS011;9464;44.918;9.670;2023-01-01T11:33:35;19.73;;;12.03;;
18669;SDS011;9464;44.918;9.670;2023-01-01T11:36:07;17.30;;;11.90;;
18669;SDS011;9464;44.918;9.670;2023-01-01T11:38:35;22.43;;;12.13;;
18669;SDS011;9464;44.918;9.670;2023-01-01T11:41:04;21.67;;;11.83;;
18669;SDS011;9464;44.918;9.670;2023-01-01T11:43:36;18.33;;;11.63;;
18669;SDS011;9464;44.918;9.670;2023-01-01T11:46:06;20.20;;;12.70;;
18669;SDS011;9464;44.918;9.670;2023-01-01T11:48:39;20.43;;;11.87;;
18669;SDS011;9464;44.918;9.670;2023-01-01T11:51:11;18.77;;;10.90;;
18669;SDS011;9464;44.918;9.670;2023-01-01T11:54:06;18.30;;;11.57;;
18669;SDS011;9464;44.918;9.670;2023-01-01T11:56:36;17.23;;;11.23;;
18669;SDS011;9464;44.918;9.670;2023-01-01T11:59:08;19.07;;;11.90;;
18669;SDS011;9464;44.918;9.670;2023-01-01T12:01:41;24.30;;;13.33;;
18669;SDS011;9464;44.918;9.670;2023-01-01T12:04:13;18.67;;;11.30;;
18669;SDS011;9464;44.918;9.670;2023-01-01T12:06:46;19.53;;;12.37;;
18669;SDS011;9464;44.918;9.670;2023-01-01T12:09:16;19.37;;;11.67;;
18669;SDS011;9464;44.918;9.670;2023-01-01T12:11:47;20.73;;;12.30;;
18669;SDS011;9464;44.918;9.670;2023-01-01T12:14:18;19.00;;;12.23;;
18669;SDS011;9464;44.918;9.670;2023-01-01T12:16:56;21.17;;;13.40;;
18669;SDS011;9464;44.918;9.670;2023-01-01T12:19:25;19.90;;;12.07;;
18669;SDS011;9464;44.918;9.670;2023-01-01T12:21:58;20.77;;;13.17;;
18669;SDS011;9464;44.918;9.670;2023-01-01T12:24:29;20.13;;;12.03;;
18669;SDS011;9464;44.918;9.670;2023-01-01T12:27:06;19.53;;;11.87;;
18669;SDS011;9464;44.918;9.670;2023-01-01T12:29:39;19.63;;;11.80;;
18669;SDS011;9464;44.918;9.670;2023-01-01T12:32:11;19.50;;;12.03;;
18669;SDS011;9464;44.918;9.670;2023-01-01T12:34:44;18.30;;;11.70;;
18669;SDS011;9464;44.918;9.670;2023-01-01T12:37:19;16.27;;;11.07;;
18669;SDS011;9464;44.918;9.670;2023-01-01T12:42:51;18.20;;;11.47;;
18669;SDS011;9464;44.918;9.670;2023-01-01T12:45:26;19.50;;;11.43;;
18669;SDS011;9464;44.918;9.670;2023-01-01T12:48:00;19.80;;;12.63;;
18669;SDS011;9464;44.918;9.670;2023-01-01T12:50:34;19.77;;;12.17;;
18669;SDS011;9464;44.918;9.670;2023-01-01T12:53:09;22.33;;;13.77;;
18669;SDS011;9464;44.918;9.670;2023-01-01T12:55:57;21.67;;;12.97;;
18669;SDS011;9464;44.918;9.670;2023-01-01T12:58:29;19.33;;;11.97;;
18669;SDS011;9464;44.918;9.670;2023-01-01T13:00:59;20.93;;;11.93;;
18669;SDS011;9464;44.918;9.670;2023-01-01T13:03:29;17.33;;;11.50;;
18669;SDS011;9464;44.918;9.670;2023-01-01T13:06:00;19.33;;;11.20;;
18669;SDS011;9464;44.918;9.670;2023-01-01T13:08:30;16.60;;;11.03;;
18669;SDS011;9464;44.918;9.670;2023-01-01T13:10:59;16.03;;;10.80;;
18669;SDS011;9464;44.918;9.670;2023-01-01T13:13:30;14.83;;;10.43;;
18669;SDS011;9464;44.918;9.670;2023-01-01T13:15:58;16.70;;;11.23;;
18669;SDS011;9464;44.918;9.670;2023-01-01T13:18:28;16.80;;;10.53;;
18669;SDS011;9464;44.918;9.670;2023-01-01T13:21:02;17.67;;;10.03;;
18669;SDS011;9464;44.918;9.670;2023-01-01T13:23:45;16.33;;;10.53;;
18669;SDS011;9464;44.918;9.670;2023-01-01T13:32:07;13.43;;;8.80;;
18669;SDS011;9464;44.918;9.670;2023-01-01T13:37:41;26.50;;;11.10;;
18669;SDS011;9464;44.918;9.670;2023-01-01T13:43:05;19.67;;;11.40;;
18669;SDS011;9464;44.918;9.670;2023-01-01T13:45:34;22.03;;;11.60;;
18669;SDS011;9464;44.918;9.670;2023-01-01T13:48:43;20.57;;;11.07;;
18669;SDS011;9464;44.918;9.670;2023-01-01T13:51:28;21.67;;;11.57;;
18669;SDS011;9464;44.918;9.670;2023-01-01T13:54:21;23.37;;;11.53;;
18669;SDS011;9464;44.918;9.670;2023-01-01T13:56:53;19.57;;;10.93;;
18669;SDS011;9464;44.918;9.670;2023-01-01T13:59:28;18.93;;;9.70;;
18669;SDS011;9464;44.918;9.670;2023-01-01T14:02:07;18.37;;;10.00;;
18669;SDS011;9464;44.918;9.670;2023-01-01T14:04:40;16.37;;;10.67;;
18669;SDS011;9464;44.918;9.670;2023-01-01T14:07:16;13.67;;;8.80;;
18669;SDS011;9464;44.918;9.670;2023-01-01T14:10:21;11.93;;;8.47;;
18669;SDS011;9464;44.918;9.670;2023-01-01T14:12:50;14.27;;;8.93;;
18669;SDS011;9464;44.918;9.670;2023-01-01T14:15:25;14.90;;;9.13;;
18669;SDS011;9464;44.918;9.670;2023-01-01T14:17:54;12.43;;;8.00;;
18669;SDS011;9464;44.918;9.670;2023-01-01T14:20:29;13.30;;;7.90;;
18669;SDS011;9464;44.918;9.670;2023-01-01T14:23:00;12.43;;;8.53;;
18669;SDS011;9464;44.918;9.670;2023-01-01T14:25:31;12.30;;;8.47;;
18669;SDS011;9464;44.918;9.670;2023-01-01T14:27:59;12.03;;;8.10;;
18669;SDS011;9464;44.918;9.670;2023-01-01T14:30:30;14.00;;;8.13;;
18669;SDS011;9464;44.918;9.670;2023-01-01T14:33:00;13.50;;;9.00;;
18669;SDS011;9464;44.918;9.670;2023-01-01T14:35:29;14.57;;;9.13;;
18669;SDS011;9464;44.918;9.670;2023-01-01T14:37:57;13.57;;;9.27;;
18669;SDS011;9464;44.918;9.670;2023-01-01T14:40:43;12.37;;;8.27;;
18669;SDS011;9464;44.918;9.670;2023-01-01T14:43:12;12.77;;;9.03;;
18669;SDS011;9464;44.918;9.670;2023-01-01T14:45:42;12.63;;;8.63;;
18669;SDS011;9464;44.918;9.670;2023-01-01T14:48:12;13.67;;;9.43;;
18669;SDS011;9464;44.918;9.670;2023-01-01T14:50:45;14.90;;;10.30;;
18669;SDS011;9464;44.918;9.670;2023-01-01T14:53:15;16.53;;;10.57;;
18669;SDS011;9464;44.918;9.670;2023-01-01T14:55:47;14.53;;;9.80;;
18669;SDS011;9464;44.918;9.670;2023-01-01T14:58:16;13.37;;;9.57;;
18669;SDS011;9464;44.918;9.670;2023-01-01T15:00:47;15.80;;;10.37;;
18669;SDS011;9464;44.918;9.670;2023-01-01T15:03:15;16.13;;;11.17;;
18669;SDS011;9464;44.918;9.670;2023-01-01T15:05:45;16.90;;;10.20;;
18669;SDS011;9464;44.918;9.670;2023-01-01T15:08:17;16.17;;;10.50;;
18669;SDS011;9464;44.918;9.670;2023-01-01T15:10:46;16.40;;;10.73;;
18669;SDS011;9464;44.918;9.670;2023-01-01T15:13:16;19.37;;;11.37;;
18669;SDS011;9464;44.918;9.670;2023-01-01T15:15:45;18.47;;;11.77;;
18669;SDS011;9464;44.918;9.670;2023-01-01T15:21:03;15.90;;;11.17;;
18669;SDS011;9464;44.918;9.670;2023-01-01T15:23:32;18.70;;;11.80;;